Airport View

Enter AWOS ICAO identifier for current METAR.

ex. KFNL

K1R7 300500Z AUTO 31008KT 10SM BKN017 BKN021 OVC026 10/07 A3013 RMK AO2 PWINO

30 Oct 2020 05:06

Frequency: 118.125

Phone: 601-833-3209

Other Area AWOS: KMCB - K0R0 - KJVW - KHKS

TAF KMCB 292334Z 3000/3024 27013KT P6SM SKC FM300100 32007KT P6SM FEW250 FM300800 35009KT P6SM BKN020 FM301500 36010KT P6SM SKC